createdAt,value
2023-02-19T00:02:57.979Z,16.00
2023-02-19T00:06:08.181Z,19.38
2023-02-19T00:09:14.315Z,20.25
2023-02-19T00:12:19.692Z,21.45
2023-02-19T00:15:25.293Z,20.23
2023-02-19T00:18:30.575Z,19.73
2023-02-19T00:21:38.331Z,20.75
2023-02-19T00:24:44.219Z,17.88
2023-02-19T00:27:49.456Z,20.17
2023-02-19T00:30:54.952Z,20.17
2023-02-19T00:34:01.169Z,19.95
2023-02-19T00:37:09.410Z,19.20
2023-02-19T00:43:19.324Z,17.33
2023-02-19T00:46:25.613Z,19.77
2023-02-19T00:49:30.908Z,17.23
2023-02-19T00:52:39.652Z,23.45
2023-02-19T00:55:45.044Z,20.23
2023-02-19T00:58:50.934Z,20.10
2023-02-19T01:01:56.437Z,21.20
2023-02-19T01:05:01.816Z,19.92
2023-02-19T01:08:11.163Z,21.48
2023-02-19T01:11:16.529Z,22.50
2023-02-19T01:14:21.873Z,22.05
2023-02-19T01:17:27.561Z,24.70
2023-02-19T01:20:32.765Z,21.92
2023-02-19T01:23:40.974Z,22.88
2023-02-19T01:29:51.529Z,23.67
2023-02-19T01:33:00.151Z,20.17
2023-02-19T01:36:06.905Z,21.40
2023-02-19T01:39:15.761Z,22.90
2023-02-19T01:42:21.236Z,25.15
2023-02-19T01:45:28.828Z,24.25
2023-02-19T01:48:36.011Z,21.90
2023-02-19T01:51:42.676Z,21.20
2023-02-19T01:54:52.078Z,24.08
2023-02-19T01:57:59.197Z,22.38
2023-02-19T02:01:06.215Z,21.85
2023-02-19T02:04:12.787Z,21.15
2023-02-19T02:07:30.905Z,19.08
2023-02-19T02:10:38.880Z,24.83
2023-02-19T02:13:44.731Z,21.70
2023-02-19T02:16:55.848Z,22.05
2023-02-19T02:20:08.211Z,22.92
2023-02-19T02:23:17.699Z,22.50
2023-02-19T02:26:34.751Z,20.27
2023-02-19T02:29:56.106Z,20.27
2023-02-19T02:33:08.040Z,20.98
2023-02-19T02:36:16.048Z,20.83
2023-02-19T02:39:23.616Z,21.65
2023-02-19T02:42:32.453Z,19.45
2023-02-19T02:45:45.087Z,19.25
2023-02-19T02:49:01.960Z,21.15
2023-02-19T02:52:27.479Z,19.27
2023-02-19T02:55:31.625Z,21.45
2023-02-19T02:58:37.175Z,18.05
2023-02-19T03:01:58.960Z,19.92
2023-02-19T03:05:21.628Z,18.23
2023-02-19T03:08:29.246Z,17.38
2023-02-19T03:11:47.302Z,17.03
2023-02-19T03:15:06.882Z,20.90
2023-02-19T03:18:25.140Z,19.23
2023-02-19T03:21:34.247Z,18.92
2023-02-19T03:24:53.221Z,23.20
2023-02-19T03:28:00.968Z,19.58
2023-02-19T03:31:06.784Z,20.80
2023-02-19T03:34:15.720Z,17.75
2023-02-19T03:37:26.387Z,18.50
2023-02-19T03:40:34.271Z,18.50
2023-02-19T03:43:42.258Z,18.90
2023-02-19T03:49:54.194Z,18.95
2023-02-19T03:53:07.815Z,20.48
2023-02-19T03:56:17.347Z,17.58
2023-02-19T03:59:26.911Z,17.35
2023-02-19T04:02:34.293Z,22.17
2023-02-19T04:05:43.412Z,21.85
2023-02-19T04:08:54.924Z,20.05
2023-02-19T04:12:01.734Z,26.60
2023-02-19T04:15:10.746Z,18.70
2023-02-19T04:18:18.369Z,20.75
2023-02-19T04:21:24.334Z,18.53
2023-02-19T04:24:34.551Z,20.50
2023-02-19T04:27:40.529Z,20.65
2023-02-19T04:30:46.382Z,18.30
2023-02-19T04:33:51.833Z,17.33
2023-02-19T04:36:57.687Z,16.98
2023-02-19T04:40:05.465Z,20.67
2023-02-19T04:43:10.847Z,18.70
2023-02-19T04:46:16.278Z,17.70
2023-02-19T04:49:21.792Z,16.65
2023-02-19T04:52:27.181Z,21.27
2023-02-19T04:55:35.395Z,21.65
2023-02-19T04:58:40.957Z,19.02
2023-02-19T05:01:46.302Z,21.27
2023-02-19T05:04:51.868Z,19.17
2023-02-19T05:07:57.503Z,18.35
2023-02-19T05:11:06.943Z,20.27
2023-02-19T05:14:12.281Z,21.60
2023-02-19T05:17:18.046Z,16.98
2023-02-19T05:20:23.273Z,19.60
2023-02-19T05:23:29.726Z,17.17
2023-02-19T05:26:37.588Z,17.85
2023-02-19T05:29:42.775Z,17.83
2023-02-19T05:32:48.316Z,18.50
2023-02-19T05:35:55.232Z,20.38
2023-02-19T05:39:01.004Z,17.80
2023-02-19T05:42:09.025Z,18.77
2023-02-19T05:45:14.354Z,17.80
2023-02-19T05:48:19.624Z,15.80
2023-02-19T05:51:26.512Z,17.52
2023-02-19T05:54:31.709Z,16.95
2023-02-19T05:57:43.765Z,18.60
2023-02-19T06:00:49.035Z,16.40
2023-02-19T06:03:57.335Z,16.45
2023-02-19T06:07:03.000Z,17.10
2023-02-19T06:10:08.811Z,15.35
2023-02-19T06:13:17.860Z,19.15
2023-02-19T06:16:23.564Z,16.35
2023-02-19T06:19:28.654Z,17.40
2023-02-19T06:22:34.058Z,18.80
2023-02-19T06:25:39.388Z,15.80
2023-02-19T06:28:48.514Z,17.58
2023-02-19T06:31:54.033Z,16.20
2023-02-19T06:34:59.327Z,14.60
2023-02-19T06:38:05.012Z,14.95
2023-02-19T06:41:10.957Z,17.98
2023-02-19T06:44:19.063Z,13.70
2023-02-19T06:47:25.537Z,13.90
2023-02-19T06:50:30.744Z,14.27
2023-02-19T06:53:36.223Z,13.80
2023-02-19T06:56:42.537Z,15.23
2023-02-19T06:59:50.249Z,16.55
2023-02-19T07:02:57.922Z,13.95
2023-02-19T07:06:04.023Z,11.80
2023-02-19T07:09:10.082Z,13.98
2023-02-19T07:12:15.580Z,12.57
2023-02-19T07:15:23.574Z,14.27
2023-02-19T07:18:29.162Z,15.18
2023-02-19T07:21:37.956Z,17.10
2023-02-19T07:24:43.392Z,13.15
2023-02-19T07:27:49.014Z,11.60
2023-02-19T07:30:57.232Z,12.98
2023-02-19T07:34:02.856Z,15.60
2023-02-19T07:37:08.791Z,17.02
2023-02-19T07:40:14.680Z,16.95
2023-02-19T07:43:20.081Z,15.45
2023-02-19T07:46:28.092Z,14.55
2023-02-19T07:49:33.516Z,13.57
2023-02-19T07:52:39.044Z,16.63
2023-02-19T07:55:44.556Z,19.38
2023-02-19T07:58:50.110Z,14.68
2023-02-19T08:02:10.349Z,15.00
2023-02-19T08:05:15.779Z,13.38
2023-02-19T08:08:21.155Z,12.77
2023-02-19T08:11:38.616Z,13.88
2023-02-19T08:14:43.994Z,15.65
2023-02-19T08:17:52.536Z,18.48
2023-02-19T08:24:02.724Z,16.13
2023-02-19T08:27:07.929Z,15.90
2023-02-19T08:30:13.754Z,16.77
2023-02-19T08:33:22.890Z,16.38
2023-02-19T08:36:28.461Z,14.90
2023-02-19T08:39:33.877Z,12.95
2023-02-19T08:42:39.566Z,17.75
2023-02-19T08:45:45.536Z,18.08
2023-02-19T08:48:54.070Z,15.85
2023-02-19T08:55:04.848Z,18.48
2023-02-19T08:58:10.476Z,14.88
2023-02-19T09:01:18.067Z,15.95
2023-02-19T09:04:26.309Z,15.25
2023-02-19T09:07:31.850Z,15.15
2023-02-19T09:10:37.256Z,15.73
2023-02-19T09:13:42.766Z,16.75
2023-02-19T09:16:48.476Z,16.48
2023-02-19T09:19:56.256Z,16.25
2023-02-19T09:23:01.904Z,16.02
2023-02-19T09:26:09.796Z,15.70
2023-02-19T09:29:15.656Z,16.35
2023-02-19T09:32:20.668Z,21.52
2023-02-19T09:35:28.994Z,15.05
2023-02-19T09:38:34.521Z,19.20
2023-02-19T09:41:41.481Z,15.98
2023-02-19T09:44:49.069Z,17.77
2023-02-19T09:47:56.567Z,21.55
2023-02-19T09:51:05.375Z,14.25
2023-02-19T09:54:16.556Z,16.63
2023-02-19T09:57:24.148Z,21.17
2023-02-19T10:00:30.804Z,16.40
2023-02-19T10:03:39.655Z,17.77
2023-02-19T10:06:47.635Z,19.15
2023-02-19T10:09:55.880Z,17.23
2023-02-19T10:16:07.393Z,15.18
2023-02-19T10:19:13.111Z,17.52
2023-02-19T10:22:21.894Z,16.67
2023-02-19T10:25:27.016Z,19.55
2023-02-19T10:28:34.158Z,16.35
2023-02-19T10:31:39.744Z,20.55
2023-02-19T10:34:45.000Z,18.05
2023-02-19T10:37:54.134Z,16.05
2023-02-19T10:41:02.321Z,18.08
2023-02-19T10:44:09.695Z,17.55
2023-02-19T10:47:18.923Z,20.17
2023-02-19T10:50:27.444Z,14.48
2023-02-19T10:53:43.399Z,17.60
2023-02-19T10:56:48.502Z,17.85
2023-02-19T10:59:54.847Z,18.55
2023-02-19T11:03:27.062Z,19.08
2023-02-19T11:06:34.867Z,20.50
2023-02-19T11:09:45.520Z,18.33
2023-02-19T11:12:51.605Z,19.83
2023-02-19T11:15:58.120Z,18.52
2023-02-19T11:19:03.894Z,18.67
2023-02-19T11:22:21.999Z,16.65
2023-02-19T11:25:30.222Z,20.33
2023-02-19T11:28:36.883Z,17.85
2023-02-19T11:31:42.443Z,16.40
2023-02-19T11:34:47.540Z,17.15
2023-02-19T11:37:57.081Z,15.82
2023-02-19T11:41:14.237Z,21.15
2023-02-19T11:44:30.516Z,17.73
2023-02-19T11:47:42.940Z,17.48
2023-02-19T11:50:55.273Z,18.30
2023-02-19T11:54:07.839Z,18.35
2023-02-19T11:57:22.889Z,18.23
2023-02-19T12:00:29.411Z,19.30
2023-02-19T12:03:51.608Z,18.88
2023-02-19T12:07:03.043Z,20.77
2023-02-19T12:10:14.477Z,19.30
2023-02-19T12:13:26.008Z,19.13
2023-02-19T12:16:34.858Z,18.40
2023-02-19T12:19:46.996Z,17.20
2023-02-19T12:22:57.144Z,19.25
2023-02-19T12:26:06.277Z,19.05
2023-02-19T12:29:26.568Z,21.83
2023-02-19T12:32:44.359Z,19.77
2023-02-19T12:35:54.243Z,18.17
2023-02-19T12:39:05.086Z,22.83
2023-02-19T12:42:14.172Z,21.08
2023-02-19T12:45:23.411Z,20.65
2023-02-19T12:48:31.453Z,23.35
2023-02-19T12:51:41.489Z,24.92
2023-02-19T12:54:50.468Z,20.30
2023-02-19T12:57:56.738Z,19.30
2023-02-19T13:01:05.465Z,18.77
2023-02-19T13:04:28.300Z,20.88
2023-02-19T13:07:36.170Z,18.48
2023-02-19T13:10:44.132Z,20.73
2023-02-19T13:13:51.931Z,29.83
2023-02-19T13:17:02.432Z,22.08
2023-02-19T13:20:17.186Z,20.90
2023-02-19T13:23:37.613Z,21.65
2023-02-19T13:26:53.404Z,22.48
2023-02-19T13:30:14.045Z,20.75
2023-02-19T13:33:27.280Z,18.63
2023-02-19T13:36:33.098Z,19.88
2023-02-19T13:39:39.433Z,24.42
2023-02-19T13:42:45.007Z,18.83
2023-02-19T13:45:50.116Z,19.60
2023-02-19T13:49:10.287Z,20.73
2023-02-19T13:52:42.642Z,21.67
2023-02-19T13:55:57.796Z,19.20
2023-02-19T13:59:15.598Z,18.92
2023-02-19T14:02:34.628Z,22.90
2023-02-19T14:05:54.500Z,22.52
2023-02-19T14:09:00.850Z,19.48
2023-02-19T14:12:21.042Z,23.35
2023-02-19T14:15:44.314Z,19.77
2023-02-19T14:18:50.668Z,21.65
2023-02-19T14:21:56.249Z,23.67
2023-02-19T14:25:01.502Z,20.35
2023-02-19T14:28:16.748Z,17.77
2023-02-19T14:31:24.491Z,20.60
2023-02-19T14:34:29.717Z,21.33
2023-02-19T14:37:35.263Z,25.67
2023-02-19T14:40:42.123Z,17.83
2023-02-19T14:43:52.118Z,21.27
2023-02-19T14:47:00.805Z,19.42
2023-02-19T14:50:08.992Z,20.95
2023-02-19T14:53:18.621Z,18.52
2023-02-19T14:56:25.143Z,18.80
2023-02-19T14:59:33.772Z,21.35
2023-02-19T15:02:45.208Z,23.25
2023-02-19T15:05:50.670Z,24.02
2023-02-19T15:08:57.032Z,20.58
2023-02-19T15:12:03.083Z,21.73
2023-02-19T15:15:11.493Z,21.70
2023-02-19T15:18:20.329Z,23.05
2023-02-19T15:21:27.531Z,22.45
2023-02-19T15:24:33.350Z,22.92
2023-02-19T15:27:38.797Z,20.50
2023-02-19T15:30:46.965Z,25.13
2023-02-19T15:33:53.645Z,24.38
2023-02-19T15:37:00.931Z,21.77
2023-02-19T15:40:08.501Z,22.70
2023-02-19T15:43:20.583Z,25.23
2023-02-19T15:46:28.743Z,23.85
2023-02-19T15:49:37.062Z,25.30
2023-02-19T15:52:45.215Z,25.35
2023-02-19T15:55:54.762Z,23.38
2023-02-19T15:59:03.734Z,23.60
2023-02-19T16:02:12.732Z,26.80
2023-02-19T16:05:20.248Z,24.55
2023-02-19T16:08:31.474Z,23.73
2023-02-19T16:11:38.858Z,26.02
2023-02-19T16:14:44.502Z,23.27
2023-02-19T16:17:52.385Z,30.42
2023-02-19T16:20:57.745Z,26.10
2023-02-19T16:24:04.818Z,23.83
2023-02-19T16:27:10.874Z,28.27
2023-02-19T16:30:26.408Z,26.65
2023-02-19T16:33:38.799Z,23.63
2023-02-19T16:36:46.229Z,26.20
2023-02-19T16:39:51.767Z,25.73
2023-02-19T16:43:14.768Z,29.75
2023-02-19T16:46:20.269Z,23.05
2023-02-19T16:49:28.397Z,24.65
2023-02-19T16:52:33.924Z,30.02
2023-02-19T16:55:39.545Z,24.63
2023-02-19T16:58:44.798Z,26.30
2023-02-19T17:01:49.990Z,28.92
2023-02-19T17:04:58.038Z,25.55
2023-02-19T17:08:03.588Z,28.08
2023-02-19T17:11:10.115Z,24.33
2023-02-19T17:14:16.358Z,29.08
2023-02-19T17:17:21.752Z,28.02
2023-02-19T17:20:31.661Z,29.70
2023-02-19T17:23:36.932Z,27.98
2023-02-19T17:26:43.484Z,28.30
2023-02-19T17:29:48.613Z,29.17
2023-02-19T17:32:54.001Z,27.05
2023-02-19T17:36:02.406Z,29.27
2023-02-19T17:39:08.724Z,32.47
2023-02-19T17:42:14.397Z,28.77
2023-02-19T17:45:19.977Z,31.13
2023-02-19T17:48:25.850Z,26.33
2023-02-19T17:51:33.593Z,31.63
2023-02-19T17:54:39.109Z,29.58
2023-02-19T17:57:44.725Z,35.63
2023-02-19T18:00:50.471Z,28.17
2023-02-19T18:03:55.956Z,30.08
2023-02-19T18:07:04.045Z,28.50
2023-02-19T18:10:10.883Z,30.10
2023-02-19T18:13:16.248Z,26.58
2023-02-19T18:16:22.034Z,33.10
2023-02-19T18:19:27.380Z,31.17
2023-02-19T18:22:35.548Z,29.67
2023-02-19T18:25:40.898Z,26.65
2023-02-19T18:28:46.468Z,30.80
2023-02-19T18:31:51.885Z,32.60
2023-02-19T18:34:58.399Z,32.95
2023-02-19T18:38:06.615Z,33.38
2023-02-19T18:44:20.051Z,29.42
2023-02-19T18:47:26.903Z,32.83
2023-02-19T18:50:33.814Z,35.92
2023-02-19T18:53:41.690Z,32.35
2023-02-19T18:56:48.029Z,33.15
2023-02-19T18:59:53.596Z,32.75
2023-02-19T19:03:00.221Z,31.27
2023-02-19T19:06:05.788Z,32.75
2023-02-19T19:09:13.930Z,32.33
2023-02-19T19:12:19.361Z,31.00
2023-02-19T19:15:25.291Z,34.85
2023-02-19T19:18:31.542Z,31.48
2023-02-19T19:21:37.224Z,31.95
2023-02-19T19:24:45.689Z,33.83
2023-02-19T19:27:51.136Z,29.33
2023-02-19T19:30:56.528Z,31.58
2023-02-19T19:34:02.055Z,30.90
2023-02-19T19:37:07.418Z,34.38
2023-02-19T19:40:16.061Z,34.13
2023-02-19T19:43:21.246Z,33.70
2023-02-19T19:46:26.823Z,35.22
2023-02-19T19:49:32.167Z,38.35
2023-02-19T19:52:37.752Z,40.28
2023-02-19T19:55:45.557Z,31.00
2023-02-19T19:58:51.399Z,35.20
2023-02-19T20:01:58.156Z,38.65
2023-02-19T20:05:03.484Z,35.80
2023-02-19T20:08:09.193Z,37.33
2023-02-19T20:11:17.233Z,34.10
2023-02-19T20:14:23.668Z,32.92
2023-02-19T20:17:29.257Z,34.42
2023-02-19T20:20:34.729Z,37.47
2023-02-19T20:23:41.517Z,34.53
2023-02-19T20:26:49.423Z,36.22
2023-02-19T20:29:54.667Z,33.03
2023-02-19T20:33:00.288Z,33.33
2023-02-19T20:36:05.570Z,34.42
2023-02-19T20:39:10.660Z,34.33
2023-02-19T20:42:19.539Z,36.15
2023-02-19T20:45:24.997Z,39.53
2023-02-19T20:48:30.327Z,35.85
2023-02-19T20:51:35.434Z,35.75
2023-02-19T20:54:42.721Z,35.13
2023-02-19T20:57:50.709Z,39.27
2023-02-19T21:00:56.566Z,33.45
2023-02-19T21:04:02.213Z,41.03
2023-02-19T21:07:07.895Z,36.22
2023-02-19T21:10:13.433Z,41.95
2023-02-19T21:13:21.795Z,45.30
2023-02-19T21:16:27.146Z,39.42
2023-02-19T21:19:32.787Z,47.45
2023-02-19T21:22:37.922Z,40.70
2023-02-19T21:25:43.493Z,55.15
2023-02-19T21:28:53.599Z,46.70
2023-02-19T21:31:59.476Z,41.97
2023-02-19T21:35:04.879Z,38.63
2023-02-19T21:38:10.595Z,46.15
2023-02-19T21:41:15.725Z,38.63
2023-02-19T21:44:24.350Z,39.22
2023-02-19T21:47:30.117Z,42.67
2023-02-19T21:50:35.549Z,43.10
2023-02-19T21:53:41.836Z,44.13
2023-02-19T21:56:47.315Z,38.08
2023-02-19T21:59:55.088Z,40.97
2023-02-19T22:03:00.355Z,40.42
2023-02-19T22:06:05.844Z,38.38
2023-02-19T22:09:12.256Z,40.63
2023-02-19T22:12:17.619Z,42.25
2023-02-19T22:15:26.115Z,50.30
2023-02-19T22:18:31.693Z,46.97
2023-02-19T22:21:37.017Z,43.22
2023-02-19T22:24:42.528Z,46.20
2023-02-19T22:27:49.137Z,43.22
2023-02-19T22:30:57.738Z,51.42
2023-02-19T22:37:07.950Z,49.92
2023-02-19T22:40:13.604Z,50.42
2023-02-19T22:43:20.658Z,48.60
2023-02-19T22:46:29.494Z,50.65
2023-02-19T22:49:35.222Z,46.67
2023-02-19T22:52:40.504Z,45.10
2023-02-19T22:55:45.816Z,45.17
2023-02-19T22:58:51.020Z,55.55
2023-02-19T23:01:59.127Z,55.47
2023-02-19T23:05:04.270Z,53.67
2023-02-19T23:08:10.063Z,50.22
2023-02-19T23:11:15.873Z,55.05
2023-02-19T23:14:22.500Z,48.70
2023-02-19T23:17:30.196Z,50.92
2023-02-19T23:20:35.709Z,55.47
2023-02-19T23:23:40.906Z,51.08
2023-02-19T23:26:46.737Z,54.42
2023-02-19T23:29:52.205Z,50.15
2023-02-19T23:33:00.352Z,50.55
2023-02-19T23:36:05.375Z,53.65
2023-02-19T23:39:11.147Z,53.25
2023-02-19T23:42:17.978Z,49.92
2023-02-19T23:45:23.249Z,53.88
2023-02-19T23:48:31.337Z,48.08
2023-02-19T23:51:36.757Z,59.03
2023-02-19T23:54:42.380Z,49.10
2023-02-19T23:57:47.962Z,50.88
